createdAt,value
2023-01-11T00:01:11.286Z,4.62
2023-01-11T00:03:38.733Z,4.56
2023-01-11T00:11:27.193Z,4.56
2023-01-11T00:13:54.755Z,4.55
2023-01-11T00:16:21.935Z,4.49
2023-01-11T00:18:49.275Z,4.49
2023-01-11T00:21:16.525Z,4.41
2023-01-11T00:23:43.933Z,4.32
2023-01-11T00:26:13.220Z,4.25
2023-01-11T00:28:40.861Z,4.15
2023-01-11T00:31:08.372Z,4.06
2023-01-11T00:33:35.792Z,3.89
2023-01-11T00:36:02.841Z,3.72
2023-01-11T00:38:51.589Z,3.63
2023-01-11T00:41:40.533Z,3.44
2023-01-11T00:44:28.913Z,3.26
2023-01-11T00:47:14.882Z,3.09
2023-01-11T00:49:44.575Z,2.90
2023-01-11T00:52:11.606Z,2.79
2023-01-11T00:54:42.373Z,2.64
2023-01-11T00:57:09.529Z,2.64
2023-01-11T00:59:40.584Z,2.52
2023-01-11T01:02:08.278Z,2.47
2023-01-11T01:04:39.139Z,2.35
2023-01-11T01:07:06.720Z,2.30
2023-01-11T01:09:36.621Z,2.18
2023-01-11T01:12:03.932Z,2.13
2023-01-11T01:14:33.460Z,2.01
2023-01-11T01:17:09.075Z,1.92
2023-01-11T01:19:37.913Z,1.81
2023-01-11T01:22:07.440Z,1.76
2023-01-11T01:24:37.331Z,1.70
2023-01-11T01:27:04.392Z,1.63
2023-01-11T01:29:32.005Z,1.59
2023-01-11T01:31:59.052Z,1.70
2023-01-11T01:34:26.426Z,1.68
2023-01-11T01:36:53.396Z,1.60
2023-01-11T01:39:20.788Z,1.69
2023-01-11T01:41:47.813Z,1.58
2023-01-11T01:44:52.643Z,1.48
2023-01-11T01:47:44.516Z,1.43
2023-01-11T01:50:20.969Z,1.42
2023-01-11T01:52:52.015Z,1.32
2023-01-11T01:55:28.645Z,1.23
2023-01-11T01:57:58.638Z,1.18
2023-01-11T02:00:26.105Z,1.14
2023-01-11T02:02:56.790Z,1.11
2023-01-11T02:05:24.214Z,1.09
2023-01-11T02:07:52.081Z,1.06
2023-01-11T02:10:21.886Z,1.22
2023-01-11T02:13:06.259Z,1.45
2023-01-11T02:15:34.051Z,1.60
2023-01-11T02:18:01.029Z,1.65
2023-01-11T02:20:50.047Z,1.58
2023-01-11T02:24:00.706Z,1.43
2023-01-11T02:26:42.526Z,1.31
2023-01-11T02:29:29.785Z,1.20
2023-01-11T02:32:34.786Z,1.12
2023-01-11T02:35:10.982Z,1.09
2023-01-11T02:38:26.115Z,1.09
2023-01-11T02:42:02.336Z,1.09
2023-01-11T02:45:03.276Z,1.09
2023-01-11T02:48:02.290Z,1.14
2023-01-11T02:50:35.627Z,1.17
2023-01-11T02:53:22.089Z,1.08
2023-01-11T02:55:58.602Z,0.97
2023-01-11T02:58:29.667Z,0.97
2023-01-11T03:00:58.679Z,0.91
2023-01-11T03:03:30.198Z,0.88
2023-01-11T03:06:14.009Z,0.79
2023-01-11T03:08:46.375Z,0.73
2023-01-11T03:11:47.916Z,0.73
2023-01-11T03:14:36.916Z,0.75
2023-01-11T03:17:26.085Z,0.74
2023-01-11T03:19:56.707Z,0.66
2023-01-11T03:22:45.756Z,0.66
2023-01-11T03:25:24.639Z,0.66
2023-01-11T03:28:16.500Z,0.64
2023-01-11T03:30:49.486Z,0.60
2023-01-11T03:33:22.579Z,0.61
2023-01-11T03:36:07.645Z,0.67
2023-01-11T03:39:03.243Z,0.64
2023-01-11T03:41:36.038Z,0.64
2023-01-11T03:44:09.421Z,0.66
2023-01-11T03:46:54.469Z,0.67
2023-01-11T03:49:37.020Z,0.56
2023-01-11T03:52:09.197Z,0.51
2023-01-11T03:54:37.267Z,0.47
2023-01-11T03:57:07.881Z,0.49
2023-01-11T03:59:35.352Z,0.45
2023-01-11T04:02:02.624Z,0.42
2023-01-11T04:04:30.002Z,0.35
2023-01-11T04:06:57.057Z,0.27
2023-01-11T04:09:24.893Z,0.23
2023-01-11T04:11:52.058Z,0.14
2023-01-11T04:14:19.299Z,0.10
2023-01-11T04:16:46.260Z,0.07
2023-01-11T04:19:13.518Z,0.03
2023-01-11T04:21:40.594Z,0.00
2023-01-11T04:24:08.869Z,-0.01
2023-01-11T04:26:35.851Z,0.00
2023-01-11T04:29:03.155Z,0.00
2023-01-11T04:31:30.386Z,0.00
2023-01-11T04:33:57.846Z,0.00
2023-01-11T04:36:26.031Z,0.02
2023-01-11T04:38:55.467Z,0.10
2023-01-11T04:41:40.946Z,0.11
2023-01-11T04:44:13.735Z,0.12
2023-01-11T04:46:40.781Z,0.13
2023-01-11T04:49:10.490Z,0.10
2023-01-11T04:51:37.464Z,0.05
2023-01-11T04:54:05.017Z,0.06
2023-01-11T04:56:34.243Z,0.00
2023-01-11T04:59:01.485Z,-0.08
2023-01-11T05:01:28.537Z,-0.14
2023-01-11T05:03:55.957Z,-0.20
2023-01-11T05:06:25.969Z,-0.24
2023-01-11T05:08:53.304Z,-0.29
2023-01-11T05:11:20.313Z,-0.33
2023-01-11T05:13:47.630Z,-0.37
2023-01-11T05:16:17.925Z,-0.43
2023-01-11T05:18:47.173Z,-0.43
2023-01-11T05:21:16.409Z,-0.43
2023-01-11T05:23:44.291Z,-0.43
2023-01-11T05:26:18.068Z,-0.41
2023-01-11T05:28:46.326Z,-0.48
2023-01-11T05:31:16.427Z,-0.53
2023-01-11T05:33:44.096Z,-0.56
2023-01-11T05:36:17.585Z,-0.59
2023-01-11T05:38:55.259Z,-0.67
2023-01-11T05:41:24.812Z,-0.71
2023-01-11T05:44:11.937Z,-0.73
2023-01-11T05:46:43.740Z,-0.77
2023-01-11T05:49:13.149Z,-0.79
2023-01-11T05:51:41.219Z,-0.82
2023-01-11T05:54:12.556Z,-0.81
2023-01-11T05:56:40.034Z,-0.69
2023-01-11T05:59:07.413Z,-0.74
2023-01-11T06:01:34.864Z,-0.74
2023-01-11T06:04:04.697Z,-0.81
2023-01-11T06:06:33.338Z,-0.80
2023-01-11T06:09:00.836Z,-0.83
2023-01-11T06:11:28.079Z,-0.90
2023-01-11T06:13:55.555Z,-0.97
2023-01-11T06:16:23.850Z,-0.93
2023-01-11T06:18:53.118Z,-0.94
2023-01-11T06:21:22.451Z,-0.95
2023-01-11T06:23:53.386Z,-0.99
2023-01-11T06:26:24.426Z,-1.05
2023-01-11T06:28:51.827Z,-1.09
2023-01-11T06:31:19.264Z,-1.13
2023-01-11T06:33:47.523Z,-1.12
2023-01-11T06:36:15.643Z,-1.08
2023-01-11T06:38:45.635Z,-1.04
2023-01-11T06:41:13.304Z,-1.02
2023-01-11T06:43:43.088Z,-0.96
2023-01-11T06:46:12.751Z,-0.93
2023-01-11T06:48:40.264Z,-0.90
2023-01-11T06:51:07.353Z,-0.85
2023-01-11T06:53:34.858Z,-0.81
2023-01-11T06:56:01.980Z,-0.76
2023-01-11T06:58:31.590Z,-0.68
2023-01-11T07:00:58.815Z,-0.57
2023-01-11T07:03:26.614Z,-0.29
2023-01-11T07:05:56.962Z,-0.20
2023-01-11T07:08:26.444Z,-0.08
2023-01-11T07:10:53.953Z,0.12
2023-01-11T07:13:21.576Z,0.05
2023-01-11T07:15:50.785Z,-0.03
2023-01-11T07:18:19.329Z,0.11
2023-01-11T07:20:47.339Z,0.01
2023-01-11T07:23:14.720Z,-0.06
2023-01-11T07:25:44.068Z,-0.13
2023-01-11T07:28:13.633Z,-0.13
2023-01-11T07:30:59.080Z,-0.13
2023-01-11T07:33:27.319Z,0.03
2023-01-11T07:35:54.870Z,0.23
2023-01-11T07:38:22.869Z,0.57
2023-01-11T07:40:50.032Z,1.12
2023-01-11T07:43:23.396Z,2.80
2023-01-11T07:45:52.979Z,4.67
2023-01-11T07:48:27.843Z,5.88
2023-01-11T07:50:55.191Z,7.06
2023-01-11T07:53:25.748Z,7.66
2023-01-11T07:55:55.840Z,7.86
2023-01-11T07:58:24.071Z,8.23
2023-01-11T08:00:51.466Z,8.45
2023-01-11T08:03:21.618Z,9.04
2023-01-11T08:05:52.953Z,8.92
2023-01-11T08:08:21.273Z,8.68
2023-01-11T08:11:08.497Z,8.74
2023-01-11T08:13:54.652Z,8.39
2023-01-11T08:16:21.831Z,7.76
2023-01-11T08:18:53.244Z,6.89
2023-01-11T08:21:22.848Z,6.52
2023-01-11T08:23:50.273Z,6.69
2023-01-11T08:26:20.328Z,6.16
2023-01-11T08:28:47.969Z,6.47
2023-01-11T08:31:17.967Z,6.50
2023-01-11T08:33:45.803Z,6.22
2023-01-11T08:36:13.314Z,5.96
2023-01-11T08:38:40.679Z,5.89
2023-01-11T08:41:10.897Z,5.71
2023-01-11T08:43:38.921Z,5.31
2023-01-11T08:46:06.607Z,5.29
2023-01-11T08:48:34.291Z,5.35
2023-01-11T08:51:01.411Z,5.35
2023-01-11T08:53:28.788Z,5.39
2023-01-11T08:55:56.024Z,5.43
2023-01-11T08:58:23.396Z,5.42
2023-01-11T09:00:50.441Z,5.46
2023-01-11T09:03:18.934Z,5.42
2023-01-11T09:05:48.439Z,5.37
2023-01-11T09:08:15.806Z,5.08
2023-01-11T09:10:43.072Z,4.95
2023-01-11T09:13:10.437Z,5.21
2023-01-11T09:15:37.469Z,5.18
2023-01-11T09:18:05.352Z,5.34
2023-01-11T09:20:32.535Z,5.50
2023-01-11T09:22:59.962Z,5.63
2023-01-11T09:25:27.114Z,5.67
2023-01-11T09:27:54.495Z,5.78
2023-01-11T09:30:22.989Z,5.71
2023-01-11T09:32:51.697Z,5.74
2023-01-11T09:35:19.413Z,5.84
2023-01-11T09:37:51.508Z,5.94
2023-01-11T09:40:51.925Z,5.97
2023-01-11T09:43:24.965Z,6.11
2023-01-11T09:45:58.788Z,6.21
2023-01-11T09:48:37.627Z,6.21
2023-01-11T09:51:05.693Z,6.38
2023-01-11T09:53:38.487Z,6.63
2023-01-11T09:56:13.278Z,6.72
2023-01-11T09:58:52.768Z,6.78
2023-01-11T10:01:36.403Z,6.96
2023-01-11T10:04:33.508Z,7.28
2023-01-11T10:07:29.023Z,7.52
2023-01-11T10:18:33.614Z,7.35
2023-01-11T10:19:41.377Z,7.36
2023-01-11T10:22:16.828Z,7.44
2023-01-11T10:24:57.794Z,7.44
2023-01-11T10:27:36.380Z,7.42
2023-01-11T10:30:42.784Z,7.41
2023-01-11T10:33:40.498Z,7.53
2023-01-11T10:36:35.577Z,7.49
2023-01-11T10:39:24.767Z,7.50
2023-01-11T10:42:10.517Z,7.39
2023-01-11T10:44:57.854Z,7.41
2023-01-11T10:47:32.032Z,7.44
2023-01-11T10:50:30.509Z,7.62
2023-01-11T10:53:25.193Z,7.52
2023-01-11T10:56:18.762Z,7.59
2023-01-11T10:59:22.093Z,7.51
2023-01-11T11:01:57.401Z,7.46
2023-01-11T11:05:18.782Z,7.41
2023-01-11T11:08:01.673Z,7.41
2023-01-11T11:10:37.765Z,7.40
2023-01-11T11:13:46.476Z,7.34
2023-01-11T11:16:22.816Z,7.25
2023-01-11T11:18:59.281Z,7.32
2023-01-11T11:21:30.529Z,7.41
2023-01-11T11:24:05.666Z,7.52
2023-01-11T11:26:38.721Z,7.63
2023-01-11T11:29:09.325Z,7.67
2023-01-11T11:31:44.228Z,7.76
2023-01-11T11:34:18.950Z,7.78
2023-01-11T11:36:49.073Z,7.74
2023-01-11T11:39:23.085Z,7.78
2023-01-11T11:41:56.427Z,7.80
2023-01-11T11:44:27.108Z,7.69
2023-01-11T11:47:12.483Z,7.66
2023-01-11T11:49:41.076Z,7.74
2023-01-11T11:52:14.780Z,7.80
2023-01-11T11:54:50.226Z,7.77
2023-01-11T11:57:22.091Z,7.69
2023-01-11T11:59:54.287Z,7.83
2023-01-11T12:02:30.780Z,7.91
2023-01-11T12:05:05.002Z,7.95
2023-01-11T12:07:49.773Z,7.91
2023-01-11T12:10:27.809Z,7.96
2023-01-11T12:13:02.367Z,7.71
2023-01-11T12:15:31.290Z,7.63
2023-01-11T12:18:30.609Z,7.54
2023-01-11T12:21:09.974Z,7.53
2023-01-11T12:23:37.137Z,7.50
2023-01-11T12:26:17.577Z,7.47
2023-01-11T12:28:58.058Z,7.51
2023-01-11T12:31:25.304Z,7.53
2023-01-11T12:34:09.629Z,7.52
2023-01-11T12:36:52.340Z,7.49
2023-01-11T12:40:01.117Z,7.43
2023-01-11T12:43:00.749Z,7.50
2023-01-11T12:45:37.730Z,7.46
2023-01-11T12:48:28.417Z,7.46
2023-01-11T12:51:10.536Z,7.52
2023-01-11T12:53:47.321Z,7.57
2023-01-11T12:56:42.319Z,7.52
2023-01-11T12:59:15.642Z,7.40
2023-01-11T13:02:07.735Z,7.34
2023-01-11T13:05:14.490Z,7.28
2023-01-11T13:08:09.580Z,7.22
2023-01-11T13:10:55.946Z,7.15
2023-01-11T13:13:28.421Z,7.17
2023-01-11T13:16:05.441Z,7.13
2023-01-11T13:18:42.602Z,7.15
2023-01-11T13:21:19.393Z,7.17
2023-01-11T13:23:53.512Z,7.18
2023-01-11T13:26:40.068Z,7.23
2023-01-11T13:29:15.931Z,7.21
2023-01-11T13:31:46.360Z,7.25
2023-01-11T13:34:47.294Z,7.32
2023-01-11T13:37:40.953Z,7.32
2023-01-11T13:40:23.395Z,7.28
2023-01-11T13:42:59.714Z,7.31
2023-01-11T13:45:30.670Z,7.26
2023-01-11T13:48:12.247Z,7.25
2023-01-11T13:50:51.619Z,7.28
2023-01-11T13:54:01.156Z,7.29
2023-01-11T13:56:33.168Z,7.16
2023-01-11T13:59:14.353Z,7.15
2023-01-11T14:01:44.709Z,7.08
2023-01-11T14:04:25.239Z,7.02
2023-01-11T14:07:09.592Z,7.05
2023-01-11T14:09:53.479Z,7.01
2023-01-11T14:12:26.555Z,6.95
2023-01-11T14:15:06.091Z,6.96
2023-01-11T14:17:33.273Z,6.89
2023-01-11T14:20:51.624Z,6.87
2023-01-11T14:23:35.900Z,6.89
2023-01-11T14:26:25.384Z,6.82
2023-01-11T14:29:07.746Z,6.73
2023-01-11T14:32:00.174Z,6.73
2023-01-11T14:34:33.061Z,6.67
2023-01-11T14:37:15.307Z,6.62
2023-01-11T14:40:06.569Z,6.63
2023-01-11T14:43:11.483Z,6.60
2023-01-11T14:45:41.651Z,6.58
2023-01-11T14:48:11.980Z,6.52
2023-01-11T14:51:09.647Z,6.50
2023-01-11T14:53:42.819Z,6.45
2023-01-11T14:56:43.928Z,6.47
2023-01-11T14:59:23.247Z,6.43
2023-01-11T15:02:05.587Z,6.39
2023-01-11T15:04:33.062Z,6.36
2023-01-11T15:07:00.799Z,6.40
2023-01-11T15:09:46.497Z,6.37
2023-01-11T15:12:19.445Z,6.34
2023-01-11T15:14:55.912Z,6.34
2023-01-11T15:17:45.933Z,6.34
2023-01-11T15:20:17.104Z,6.39
2023-01-11T15:22:45.345Z,6.37
2023-01-11T15:25:28.134Z,6.44
2023-01-11T15:27:56.668Z,6.36
2023-01-11T15:30:30.189Z,6.36
2023-01-11T15:33:19.409Z,6.34
2023-01-11T15:35:56.185Z,6.33
2023-01-11T15:38:54.220Z,6.38
2023-01-11T15:42:09.317Z,6.42
2023-01-11T15:45:06.512Z,6.42
2023-01-11T15:48:03.340Z,6.39
2023-01-11T15:50:58.436Z,6.40
2023-01-11T15:53:52.814Z,6.39
2023-01-11T15:56:35.688Z,6.39
2023-01-11T15:59:41.567Z,6.42
2023-01-11T16:02:14.956Z,6.41
2023-01-11T16:04:53.687Z,6.38
2023-01-11T16:08:01.369Z,6.39
2023-01-11T16:10:47.594Z,6.47
2023-01-11T16:13:37.016Z,6.42
2023-01-11T16:16:18.642Z,6.44
2023-01-11T16:18:51.643Z,6.42
2023-01-11T16:21:41.059Z,6.41
2023-01-11T16:24:12.812Z,6.36
2023-01-11T16:26:41.559Z,6.34
2023-01-11T16:29:18.841Z,6.32
2023-01-11T16:32:03.064Z,6.37
2023-01-11T16:34:39.414Z,6.34
2023-01-11T16:37:40.845Z,6.34
2023-01-11T16:40:11.221Z,6.38
2023-01-11T16:42:45.152Z,6.36
2023-01-11T16:45:20.522Z,6.33
2023-01-11T16:48:04.771Z,6.30
2023-01-11T16:50:33.411Z,6.29
2023-01-11T16:53:31.258Z,6.28
2023-01-11T16:56:05.865Z,6.24
2023-01-11T16:58:35.698Z,6.26
2023-01-11T17:01:12.026Z,6.24
2023-01-11T17:03:54.562Z,6.28
2023-01-11T17:06:22.848Z,6.25
2023-01-11T17:08:57.553Z,6.22
2023-01-11T17:11:46.811Z,6.22
2023-01-11T17:14:25.320Z,6.20
2023-01-11T17:16:59.813Z,6.26
2023-01-11T17:19:37.050Z,6.33
2023-01-11T17:22:06.402Z,6.34
2023-01-11T17:24:41.688Z,6.32
2023-01-11T17:27:20.074Z,6.32
2023-01-11T17:29:48.272Z,6.31
2023-01-11T17:32:22.183Z,6.30
2023-01-11T17:34:51.013Z,6.31
2023-01-11T17:37:19.261Z,6.37
2023-01-11T17:39:53.739Z,6.39
2023-01-11T17:42:40.891Z,6.37
2023-01-11T17:45:21.232Z,6.28
2023-01-11T17:47:51.064Z,6.24
2023-01-11T17:50:29.389Z,6.19
2023-01-11T17:53:26.718Z,6.21
2023-01-11T17:56:05.215Z,6.13
2023-01-11T17:58:42.249Z,6.10
2023-01-11T18:01:13.776Z,6.00
2023-01-11T18:03:54.529Z,5.96
2023-01-11T18:06:41.351Z,5.95
2023-01-11T18:09:29.505Z,5.94
2023-01-11T18:12:07.987Z,6.01
2023-01-11T18:15:03.635Z,6.01
2023-01-11T18:17:35.253Z,6.00
2023-01-11T18:20:24.338Z,6.00
2023-01-11T18:22:54.886Z,5.94
2023-01-11T18:25:31.526Z,5.98
2023-01-11T18:28:11.614Z,5.92
2023-01-11T18:30:48.464Z,5.93
2023-01-11T18:33:19.903Z,5.91
2023-01-11T18:35:50.227Z,5.89
2023-01-11T18:38:22.188Z,5.89
2023-01-11T18:40:51.807Z,5.94
2023-01-11T18:43:27.173Z,6.02
2023-01-11T18:45:54.930Z,6.00
2023-01-11T18:48:22.884Z,6.02
2023-01-11T18:50:52.137Z,6.00
2023-01-11T18:53:23.849Z,5.94
2023-01-11T18:55:51.303Z,5.95
2023-01-11T18:58:19.203Z,5.98
2023-01-11T19:00:46.647Z,5.95
2023-01-11T19:05:42.926Z,5.94
2023-01-11T19:08:11.177Z,5.97
2023-01-11T19:10:38.770Z,5.99
2023-01-11T19:13:06.609Z,5.98
2023-01-11T19:15:36.773Z,5.99
2023-01-11T19:18:04.789Z,6.02
2023-01-11T19:23:04.875Z,6.02
2023-01-11T19:25:32.841Z,6.04
2023-01-11T19:28:03.670Z,6.04
2023-01-11T19:30:31.856Z,6.04
2023-01-11T19:32:59.735Z,6.03
2023-01-11T19:35:26.889Z,6.03
2023-01-11T19:37:54.573Z,6.04
2023-01-11T19:40:21.846Z,6.03
2023-01-11T19:42:52.444Z,5.98
2023-01-11T19:45:19.804Z,5.95
2023-01-11T19:47:47.898Z,5.93
2023-01-11T19:50:19.681Z,5.94
2023-01-11T19:52:50.865Z,5.94
2023-01-11T19:55:18.377Z,5.92
2023-01-11T19:57:46.888Z,5.91
2023-01-11T20:00:14.943Z,5.91
2023-01-11T20:02:43.810Z,5.99
2023-01-11T20:05:14.358Z,5.95
2023-01-11T20:07:42.220Z,5.88
2023-01-11T20:10:09.822Z,5.78
2023-01-11T20:12:40.490Z,5.76
2023-01-11T20:15:08.603Z,5.73
2023-01-11T20:17:37.970Z,5.57
2023-01-11T20:20:07.379Z,5.43
2023-01-11T20:22:35.542Z,5.33
2023-01-11T20:25:07.410Z,5.28
2023-01-11T20:27:37.885Z,5.16
2023-01-11T20:30:08.628Z,5.23
2023-01-11T20:32:41.918Z,5.12
2023-01-11T20:35:10.927Z,5.07
2023-01-11T20:37:38.720Z,5.05
2023-01-11T20:40:06.958Z,5.07
2023-01-11T20:42:37.096Z,5.06
2023-01-11T20:45:05.531Z,5.07
2023-01-11T20:47:34.298Z,5.08
2023-01-11T20:50:02.140Z,5.09
2023-01-11T20:52:33.621Z,5.02
2023-01-11T20:55:03.542Z,5.05
2023-01-11T20:57:31.387Z,5.06
2023-01-11T20:59:58.855Z,5.06
2023-01-11T21:02:26.346Z,5.02
2023-01-11T21:04:53.482Z,5.02
2023-01-11T21:07:20.951Z,4.97
2023-01-11T21:09:47.985Z,5.02
2023-01-11T21:12:17.696Z,4.96
2023-01-11T21:14:44.892Z,4.94
2023-01-11T21:17:12.454Z,4.84
2023-01-11T21:19:43.717Z,4.85
2023-01-11T21:22:11.458Z,4.86
2023-01-11T21:24:41.172Z,4.78
2023-01-11T21:27:08.777Z,4.79
2023-01-11T21:29:36.083Z,4.84
2023-01-11T21:32:03.593Z,4.80
2023-01-11T21:34:30.678Z,4.85
2023-01-11T21:36:58.164Z,4.83
2023-01-11T21:39:26.783Z,4.81
2023-01-11T21:41:58.470Z,4.83
2023-01-11T21:44:30.884Z,4.85
2023-01-11T21:46:59.435Z,4.78
2023-01-11T21:49:26.529Z,4.75
2023-01-11T21:51:54.053Z,4.73
2023-01-11T21:54:21.389Z,4.76
2023-01-11T21:56:49.653Z,4.73
2023-01-11T21:59:17.664Z,4.74
2023-01-11T22:01:46.141Z,4.78
2023-01-11T22:04:16.453Z,4.70
2023-01-11T22:06:51.440Z,4.78
2023-01-11T22:09:19.795Z,4.73
2023-01-11T22:11:47.612Z,4.75
2023-01-11T22:14:14.723Z,4.74
2023-01-11T22:16:42.426Z,4.73
2023-01-11T22:19:09.696Z,4.72
2023-01-11T22:21:37.923Z,4.75
2023-01-11T22:24:07.784Z,4.73
2023-01-11T22:26:42.095Z,4.72
2023-01-11T22:29:13.099Z,4.73
2023-01-11T22:31:43.689Z,4.69
2023-01-11T22:34:12.048Z,4.66
2023-01-11T22:36:39.845Z,4.68
2023-01-11T22:39:08.340Z,4.72
2023-01-11T22:41:36.039Z,4.78
2023-01-11T22:44:06.778Z,4.76
2023-01-11T22:46:34.711Z,4.75
2023-01-11T22:49:01.893Z,4.74
2023-01-11T22:51:29.402Z,4.77
2023-01-11T22:53:56.749Z,4.76
2023-01-11T22:56:26.037Z,4.74
2023-01-11T22:58:54.290Z,4.69
2023-01-11T23:01:21.700Z,4.65
2023-01-11T23:03:52.313Z,4.69
2023-01-11T23:06:27.003Z,4.67
2023-01-11T23:08:55.114Z,4.66
2023-01-11T23:11:46.605Z,4.60
2023-01-11T23:14:19.515Z,4.62
2023-01-11T23:16:48.576Z,4.64
2023-01-11T23:19:20.613Z,4.59
2023-01-11T23:21:48.353Z,4.60
2023-01-11T23:24:16.859Z,4.60
2023-01-11T23:26:45.577Z,4.53
2023-01-11T23:29:15.471Z,4.48
2023-01-11T23:31:43.326Z,4.51
2023-01-11T23:34:11.779Z,4.39
2023-01-11T23:36:41.830Z,4.34
2023-01-11T23:39:18.728Z,4.34
2023-01-11T23:42:05.165Z,4.34
2023-01-11T23:44:32.634Z,4.31
2023-01-11T23:47:18.726Z,4.32
2023-01-11T23:49:45.870Z,4.37
2023-01-11T23:52:13.440Z,4.37
2023-01-11T23:54:40.616Z,4.42
2023-01-11T23:57:12.343Z,4.40
2023-01-11T23:59:41.380Z,4.37
